Time;durP1;ratioP1;P1;durP2;ratioP2;P2;SDS_P1;SDS_P2;PMS_P1;PMS_P2;Temp;Humidity;BMP_temperature;BMP_pressure;BME280_temperature;BME280_humidity;BME280_pressure;Samples;Min_cycle;Max_cycle;Signal;HPM_P1;HPM_P2
2021/07/21 00:00:29;;;;;;;15.05;8.65;;;22.60;97.90;;;;;;5055563;28;20025;-73
2021/07/21 00:02:56;;;;;;;16.17;8.90;;;22.50;97.80;;;;;;5054956;28;20406;-74
2021/07/21 00:05:23;;;;;;;21.23;9.60;;;22.50;97.60;;;;;;5054953;28;20025;-73
2021/07/21 00:07:49;;;;;;;16.60;8.95;;;22.40;97.20;;;;;;5054875;28;20040;-73
2021/07/21 00:10:17;;;;;;;17.13;9.57;;;22.30;97.40;;;;;;5055222;28;20025;-73
2021/07/21 00:15:28;;;;;;;;;;;22.20;97.70;;;;;;5054943;28;20119;-73
2021/07/21 00:18:04;;;;;;;18.83;9.55;;;22.20;98.40;;;;;;5070014;28;19915;-73
2021/07/21 00:20:32;;;;;;;18.95;11.38;;;22.30;98.90;;;;;;5070804;28;20083;-73
2021/07/21 00:22:59;;;;;;;17.80;10.05;;;22.30;98.60;;;;;;5053421;28;20056;-73
2021/07/21 00:25:25;;;;;;;18.52;10.13;;;22.30;98.60;;;;;;5055165;28;20104;-73
2021/07/21 00:27:51;;;;;;;19.67;11.68;;;22.30;98.50;;;;;;5054644;28;20110;-73
2021/07/21 00:30:19;;;;;;;18.52;10.90;;;22.30;98.50;;;;;;5053515;28;20032;-73
2021/07/21 00:32:46;;;;;;;15.82;9.90;;;22.30;98.10;;;;;;5054507;28;20059;-73
2021/07/21 00:35:16;;;;;;;19.67;11.40;;;22.30;98.10;;;;;;5054830;28;20037;-73
2021/07/21 00:37:42;;;;;;;19.33;10.77;;;22.30;98.20;;;;;;5054343;28;20114;-73
2021/07/21 00:40:09;;;;;;;19.98;11.25;;;22.30;98.20;;;;;;5054281;28;20072;-73
2021/07/21 00:42:36;;;;;;;15.43;10.05;;;22.30;98.30;;;;;;5054564;28;20025;-78
2021/07/21 00:45:03;;;;;;;18.13;10.43;;;22.40;98.60;;;;;;5054377;28;20036;-73
2021/07/21 00:47:29;;;;;;;18.75;11.02;;;22.40;98.50;;;;;;5054129;28;20036;-73
2021/07/21 00:49:55;;;;;;;16.67;10.85;;;22.40;98.30;;;;;;5052861;28;20382;-73
2021/07/21 01:02:51;;;;;;;16.75;10.45;;;22.40;98.40;;;;;;5054072;27;20454;-74
2021/07/21 01:05:23;;;;;;;18.77;10.07;;;22.30;97.60;;;;;;5050147;28;20128;-73
2021/07/21 01:07:50;;;;;;;16.50;9.73;;;22.20;97.60;;;;;;5050496;28;20021;-74
2021/07/21 01:10:17;;;;;;;19.42;9.27;;;22.20;97.60;;;;;;5050263;28;20029;-74
2021/07/21 01:12:53;;;;;;;16.95;9.13;;;22.10;97.80;;;;;;5049067;28;20456;-74
2021/07/21 01:15:23;;;;;;;17.17;9.40;;;22.10;97.90;;;;;;5050404;28;20021;-74
2021/07/21 01:18:03;;;;;;;17.17;12.27;;;22.10;97.70;;;;;;5050155;28;20075;-74
2021/07/21 01:20:56;;;;;;;18.13;11.68;;;22.10;97.50;;;;;;5050182;28;20032;-74
2021/07/21 01:23:43;;;;;;;15.85;10.93;;;22.00;97.50;;;;;;5050302;28;20041;-74
2021/07/21 01:26:11;;;;;;;17.02;11.02;;;22.00;97.70;;;;;;5050077;28;20029;-74
2021/07/21 01:28:44;;;;;;;16.95;11.10;;;22.00;98.00;;;;;;5050008;28;20348;-74
2021/07/21 01:31:16;;;;;;;18.63;12.05;;;22.10;98.40;;;;;;5050251;28;20422;-74
2021/07/21 01:33:43;;;;;;;18.10;12.10;;;22.10;98.20;;;;;;5049924;28;20025;-74
2021/07/21 01:36:13;;;;;;;18.75;11.38;;;22.20;98.00;;;;;;5049640;28;20044;-74
2021/07/21 01:38:45;;;;;;;18.23;11.30;;;22.10;97.80;;;;;;5049873;28;20061;-75
2021/07/21 01:41:14;;;;;;;17.58;11.93;;;22.20;98.00;;;;;;5049960;28;20364;-73
2021/07/21 01:43:43;;;;;;;16.38;10.90;;;22.20;98.10;;;;;;5049447;28;20022;-76
2021/07/21 01:46:10;;;;;;;18.02;11.35;;;22.20;98.10;;;;;;5049543;28;20456;-72
2021/07/21 01:48:39;;;;;;;18.88;11.25;;;22.30;98.30;;;;;;5049478;28;20030;-73
2021/07/21 01:51:07;;;;;;;16.30;10.63;;;22.30;98.40;;;;;;5049229;28;20091;-74
2021/07/21 01:53:35;;;;;;;16.33;11.30;;;22.40;98.60;;;;;;5049297;28;20493;-74
2021/07/21 01:56:04;;;;;;;13.77;10.05;;;22.50;98.70;;;;;;5049220;28;20530;-74
2021/07/21 01:58:31;;;;;;;14.57;9.93;;;22.50;98.50;;;;;;5049333;28;20032;-74
2021/07/21 02:00:57;;;;;;;14.05;9.50;;;22.50;98.20;;;;;;5049011;28;20080;-74
2021/07/21 02:03:24;;;;;;;13.43;9.50;;;22.60;98.20;;;;;;5038725;28;20029;-74
2021/07/21 02:05:54;;;;;;;14.60;9.23;;;22.60;98.10;;;;;;5035758;28;20076;-74
2021/07/21 02:08:22;;;;;;;14.02;8.93;;;22.60;98.10;;;;;;5035793;28;20026;-74
2021/07/21 02:10:48;;;;;;;12.23;9.40;;;22.70;98.40;;;;;;5035866;28;20049;-74
2021/07/21 02:13:16;;;;;;;11.27;7.95;;;22.70;98.10;;;;;;5035920;28;20030;-74
2021/07/21 02:15:44;;;;;;;12.20;7.65;;;22.70;98.10;;;;;;5035466;28;20476;-75
2021/07/21 02:18:10;;;;;;;9.52;7.40;;;22.70;98.10;;;;;;5036103;28;20528;-74
2021/07/21 02:20:37;;;;;;;11.25;6.95;;;22.80;98.60;;;;;;5035845;28;20029;-74
2021/07/21 02:23:03;;;;;;;7.35;5.72;;;22.90;98.60;;;;;;5035488;28;20043;-74
2021/07/21 02:25:29;;;;;;;8.40;5.93;;;22.90;98.70;;;;;;5036095;28;20032;-74
2021/07/21 02:27:57;;;;;;;7.75;5.10;;;23.00;98.70;;;;;;5035353;28;20076;-75
2021/07/21 02:30:24;;;;;;;8.30;4.95;;;23.00;98.40;;;;;;5035595;28;20550;-74
2021/07/21 02:32:54;;;;;;;5.85;4.93;;;23.10;98.30;;;;;;5035332;28;20483;-75
2021/07/21 02:35:21;;;;;;;6.00;4.75;;;23.10;97.90;;;;;;5035623;28;20025;-74
2021/07/21 02:37:51;;;;;;;5.70;4.70;;;23.10;97.60;;;;;;5035534;28;20036;-74
2021/07/21 02:40:18;;;;;;;6.90;5.43;;;23.10;97.60;;;;;;5035477;28;20038;-74
2021/07/21 02:42:44;;;;;;;6.82;4.78;;;23.10;97.80;;;;;;5035316;28;20053;-75
2021/07/21 02:45:11;;;;;;;5.97;5.13;;;23.10;97.70;;;;;;5035578;28;20476;-74
2021/07/21 02:47:39;;;;;;;6.45;4.93;;;23.20;97.70;;;;;;5035224;28;20026;-74
2021/07/21 02:50:06;;;;;;;11.38;5.25;;;23.20;97.70;;;;;;5034759;28;20467;-74
2021/07/21 02:52:57;;;;;;;6.18;5.03;;;23.20;97.50;;;;;;5035244;28;20036;-74
2021/07/21 02:55:27;;;;;;;7.47;5.95;;;23.20;97.80;;;;;;5035212;28;20053;-74
2021/07/21 02:58:17;;;;;;;8.27;6.53;;;23.20;97.90;;;;;;5035025;28;20048;-74
2021/07/21 03:00:43;;;;;;;8.23;5.88;;;23.20;97.70;;;;;;5034842;28;20033;-74
2021/07/21 03:03:10;;;;;;;8.60;5.60;;;23.20;97.50;;;;;;5034854;28;20057;-74
2021/07/21 03:05:38;;;;;;;8.02;5.75;;;23.20;97.80;;;;;;5035068;28;20029;-75
2021/07/21 03:08:05;;;;;;;7.53;6.00;;;23.30;97.80;;;;;;5033727;28;20041;-75
2021/07/21 03:10:32;;;;;;;7.60;6.00;;;23.30;97.80;;;;;;5035029;28;20430;-74
2021/07/21 03:13:20;;;;;;;9.55;6.28;;;23.30;97.40;;;;;;5034806;28;20116;-74
2021/07/21 03:15:48;;;;;;;8.50;6.88;;;23.40;97.70;;;;;;5034027;28;20112;-76
2021/07/21 03:18:17;;;;;;;8.65;6.10;;;23.40;97.30;;;;;;5034521;28;20113;-75
2021/07/21 03:20:44;;;;;;;8.05;5.38;;;23.40;97.20;;;;;;5035038;28;20087;-75
2021/07/21 03:23:11;;;;;;;9.70;6.43;;;23.40;97.50;;;;;;5034862;28;20029;-75
2021/07/21 03:25:38;;;;;;;8.65;6.22;;;23.40;97.30;;;;;;5034657;28;20083;-75
2021/07/21 03:28:07;;;;;;;7.40;5.13;;;23.40;97.30;;;;;;5034596;28;20428;-74
2021/07/21 03:30:35;;;;;;;5.47;4.90;;;23.40;97.20;;;;;;5034707;28;20042;-74
2021/07/21 03:33:03;;;;;;;9.43;5.18;;;23.50;97.10;;;;;;5034043;28;20486;-75
2021/07/21 03:35:33;;;;;;;8.05;4.57;;;23.50;97.10;;;;;;5034453;28;20064;-74
2021/07/21 03:37:59;;;;;;;8.15;4.88;;;23.50;97.30;;;;;;5033057;28;20079;-74
2021/07/21 03:40:26;;;;;;;5.45;4.32;;;23.50;97.20;;;;;;5034275;28;20029;-75
2021/07/21 03:42:54;;;;;;;6.63;4.50;;;23.50;96.90;;;;;;5034095;28;20471;-74
2021/07/21 03:45:22;;;;;;;6.32;4.13;;;23.50;97.00;;;;;;5033985;28;20049;-74
2021/07/21 03:47:49;;;;;;;7.25;4.47;;;23.60;97.20;;;;;;5032704;28;20035;-76
2021/07/21 03:50:21;;;;;;;6.18;4.32;;;23.60;97.10;;;;;;5034158;28;20021;-74
2021/07/21 03:52:48;;;;;;;4.82;3.75;;;23.60;97.30;;;;;;5034316;28;20026;-80
2021/07/21 03:55:15;;;;;;;5.50;4.13;;;23.70;97.30;;;;;;5034067;28;20464;-75
2021/07/21 03:57:43;;;;;;;5.43;4.28;;;23.70;97.20;;;;;;5032689;28;20510;-75
2021/07/21 04:00:11;;;;;;;5.13;4.15;;;23.80;97.20;;;;;;5033775;28;20032;-74
2021/07/21 04:02:39;;;;;;;5.88;4.38;;;23.80;97.40;;;;;;5033879;28;20063;-75
2021/07/21 04:05:06;;;;;;;7.55;4.43;;;23.90;97.60;;;;;;5032899;28;20116;-75
2021/07/21 04:07:35;;;;;;;5.35;4.80;;;24.00;97.60;;;;;;5033900;28;20091;-74
2021/07/21 04:10:03;;;;;;;6.07;4.50;;;24.10;97.60;;;;;;5033665;28;20444;-74
2021/07/21 04:12:30;;;;;;;4.32;3.92;;;24.20;97.60;;;;;;5032340;28;20087;-73
2021/07/21 04:14:57;;;;;;;5.35;4.13;;;24.30;97.60;;;;;;5033606;28;20017;-74
2021/07/21 04:17:23;;;;;;;6.15;4.60;;;24.30;97.40;;;;;;5033572;28;20376;-73
2021/07/21 04:19:49;;;;;;;6.32;4.88;;;24.40;97.30;;;;;;5033599;28;20097;-74
2021/07/21 04:22:19;;;;;;;6.78;4.50;;;24.40;97.20;;;;;;5033760;28;20528;-74
2021/07/21 04:24:46;;;;;;;6.97;4.80;;;24.50;97.00;;;;;;5034147;28;20026;-74
2021/07/21 04:27:13;;;;;;;6.55;4.90;;;24.60;97.10;;;;;;5033459;28;20112;-74
2021/07/21 04:29:41;;;;;;;6.25;5.10;;;24.60;96.80;;;;;;5033704;28;20028;-74
2021/07/21 04:32:08;;;;;;;5.85;4.07;;;24.70;97.00;;;;;;5033249;28;20435;-74
2021/07/21 04:34:34;;;;;;;6.05;5.30;;;24.70;97.00;;;;;;5032623;28;20143;-74
2021/07/21 04:37:00;;;;;;;6.28;4.97;;;24.80;96.60;;;;;;5033464;28;20041;-74
2021/07/21 04:39:29;;;;;;;8.80;4.95;;;24.80;96.60;;;;;;5033224;28;20107;-74
2021/07/21 04:41:56;;;;;;;6.18;5.25;;;24.90;96.60;;;;;;5033211;28;20029;-75
2021/07/21 04:44:23;;;;;;;6.15;4.55;;;24.90;96.70;;;;;;5033448;28;20029;-75
2021/07/21 04:46:49;;;;;;;7.00;5.15;;;25.00;96.80;;;;;;5033397;28;20033;-74
2021/07/21 04:49:18;;;;;;;6.20;4.75;;;25.10;96.40;;;;;;5033318;28;20040;-75
2021/07/21 04:51:47;;;;;;;5.53;4.10;;;25.10;96.50;;;;;;5033289;28;20036;-74
2021/07/21 04:54:14;;;;;;;6.07;4.88;;;25.20;96.30;;;;;;5033128;28;20108;-75
2021/07/21 04:56:41;;;;;;;6.28;5.43;;;25.30;96.00;;;;;;5033200;28;20040;-74
2021/07/21 04:59:06;;;;;;;6.97;5.13;;;25.30;95.70;;;;;;5038386;28;20418;-75
2021/07/21 05:01:37;;;;;;;6.78;5.88;;;25.40;95.80;;;;;;5048491;28;20094;-75
2021/07/21 05:04:04;;;;;;;8.38;5.60;;;25.40;95.40;;;;;;5043838;28;20387;-75
2021/07/21 05:06:32;;;;;;;8.43;5.82;;;25.40;95.40;;;;;;5032379;28;20522;-74
2021/07/21 05:08:58;;;;;;;7.88;5.32;;;25.40;95.10;;;;;;5031463;28;20396;-74
2021/07/21 05:11:24;;;;;;;7.07;5.50;;;25.50;94.90;;;;;;5033194;28;20040;-74
2021/07/21 05:13:50;;;;;;;8.52;5.90;;;25.50;94.60;;;;;;5032836;28;20032;-74
2021/07/21 05:16:16;;;;;;;6.90;5.72;;;25.40;94.30;;;;;;5033358;28;20383;-74
2021/07/21 05:18:42;;;;;;;7.93;5.88;;;25.40;94.30;;;;;;5033063;28;20028;-74
2021/07/21 05:21:09;;;;;;;7.80;5.20;;;25.40;94.40;;;;;;5033083;28;20040;-75
2021/07/21 05:23:36;;;;;;;7.22;6.13;;;25.40;94.50;;;;;;5032958;28;20112;-75
2021/07/21 05:26:03;;;;;;;8.63;5.90;;;25.50;94.60;;;;;;5032961;28;20053;-75
2021/07/21 05:28:28;;;;;;;7.82;5.70;;;25.60;94.60;;;;;;5033061;28;20112;-75
2021/07/21 05:30:54;;;;;;;9.70;6.90;;;25.70;94.70;;;;;;5032696;28;20454;-75
2021/07/21 05:33:20;;;;;;;7.75;6.10;;;25.80;94.20;;;;;;5033042;28;20479;-75
2021/07/21 05:35:46;;;;;;;9.63;6.82;;;25.90;94.10;;;;;;5033264;28;20087;-74
2021/07/21 05:38:13;;;;;;;13.23;7.65;;;26.00;93.90;;;;;;5033682;28;20140;-74
2021/07/21 05:40:39;;;;;;;11.68;7.93;;;26.00;93.60;;;;;;5036483;28;20034;-74
2021/07/21 05:43:05;;;;;;;12.23;8.13;;;26.10;93.50;;;;;;5036335;28;20104;-75
2021/07/21 05:45:31;;;;;;;10.43;7.72;;;26.20;93.10;;;;;;5036861;28;20125;-73
2021/07/21 05:47:57;;;;;;;11.88;8.13;;;26.20;92.80;;;;;;5036611;28;20025;-76
2021/07/21 05:50:24;;;;;;;10.35;7.47;;;26.20;92.40;;;;;;5036559;28;20064;-74
2021/07/21 05:52:50;;;;;;;11.40;8.60;;;26.30;92.20;;;;;;5036200;28;20026;-75
2021/07/21 05:55:16;;;;;;;12.10;7.88;;;26.40;92.30;;;;;;5036451;28;20195;-75
2021/07/21 05:57:46;;;;;;;15.48;8.50;;;26.50;92.20;;;;;;5036390;28;20537;-75
2021/07/21 06:00:13;;;;;;;12.25;8.90;;;26.50;91.80;;;;;;5036212;28;20043;-75
2021/07/21 06:02:39;;;;;;;12.57;8.70;;;26.60;91.60;;;;;;5036572;28;20041;-73
2021/07/21 06:05:08;;;;;;;13.18;9.98;;;26.70;91.40;;;;;;5036274;28;20022;-74
2021/07/21 06:07:33;;;;;;;12.77;9.63;;;26.80;91.00;;;;;;5034922;28;20390;-75
2021/07/21 06:09:59;;;;;;;14.95;10.93;;;26.80;90.90;;;;;;5035673;28;20034;-75
2021/07/21 06:12:25;;;;;;;12.68;9.73;;;26.80;90.40;;;;;;5036089;28;20037;-75
2021/07/21 06:14:51;;;;;;;15.13;11.48;;;26.90;90.50;;;;;;5036214;28;20044;-73
2021/07/21 06:17:17;;;;;;;14.57;9.90;;;27.00;90.40;;;;;;5036066;28;20087;-75
2021/07/21 06:19:43;;;;;;;15.85;11.70;;;27.10;90.20;;;;;;5035839;28;20455;-73
2021/07/21 06:22:09;;;;;;;15.98;11.57;;;27.30;90.20;;;;;;5035394;28;20170;-74
2021/07/21 06:24:35;;;;;;;17.70;11.50;;;27.50;89.70;;;;;;5035756;28;20025;-74
2021/07/21 06:27:02;;;;;;;17.33;11.68;;;27.60;88.60;;;;;;5036022;28;20036;-75
2021/07/21 06:29:28;;;;;;;14.45;10.80;;;27.80;87.40;;;;;;5035558;28;20033;-75
2021/07/21 06:31:54;;;;;;;16.33;11.82;;;27.80;86.90;;;;;;5035760;28;20125;-74
2021/07/21 06:34:20;;;;;;;17.75;11.90;;;27.90;85.20;;;;;;5035227;28;20056;-75
2021/07/21 06:36:46;;;;;;;20.05;11.75;;;27.80;84.60;;;;;;5036073;28;20045;-76
2021/07/21 06:39:12;;;;;;;15.38;11.45;;;27.80;84.90;;;;;;5035537;28;20037;-74
2021/07/21 06:41:38;;;;;;;15.75;11.40;;;27.80;85.00;;;;;;5036075;28;20044;-74
2021/07/21 06:44:04;;;;;;;15.80;11.82;;;27.90;84.40;;;;;;5035426;28;20348;-76
2021/07/21 06:46:30;;;;;;;15.35;11.38;;;27.90;84.00;;;;;;5035721;28;20361;-75
2021/07/21 06:48:56;;;;;;;15.75;12.00;;;27.90;83.50;;;;;;5035278;28;20104;-74
2021/07/21 06:51:22;;;;;;;16.27;12.15;;;28.00;83.50;;;;;;5035368;28;20041;-74
2021/07/21 06:53:48;;;;;;;14.93;10.55;;;28.10;83.00;;;;;;5035205;28;20030;-75
2021/07/21 06:56:15;;;;;;;15.27;10.32;;;28.20;82.80;;;;;;5035204;28;20053;-75
2021/07/21 06:58:41;;;;;;;15.20;11.32;;;28.30;82.20;;;;;;5035255;28;20021;-75
2021/07/21 07:01:07;;;;;;;15.73;11.43;;;28.30;81.70;;;;;;5035035;28;20380;-74
2021/07/21 07:03:33;;;;;;;18.90;11.80;;;28.40;81.10;;;;;;5035175;28;20040;-74
2021/07/21 07:05:59;;;;;;;17.48;11.77;;;28.30;81.00;;;;;;5034762;28;20034;-74
2021/07/21 07:08:25;;;;;;;17.58;11.45;;;28.40;81.20;;;;;;5041243;28;20135;-75
2021/07/21 07:10:50;;;;;;;20.13;13.18;;;28.40;81.40;;;;;;5054805;28;20041;-75
2021/07/21 07:13:16;;;;;;;15.48;11.15;;;28.60;81.30;;;;;;5054830;28;20434;-75
2021/07/21 07:15:43;;;;;;;16.25;12.35;;;28.80;81.20;;;;;;5054854;28;20029;-75
2021/07/21 07:18:14;;;;;;;17.10;11.07;;;29.00;80.60;;;;;;5054719;28;20025;-75
2021/07/21 07:20:41;;;;;;;15.02;10.70;;;29.00;79.90;;;;;;5055436;28;20425;-75
2021/07/21 07:23:07;;;;;;;19.00;12.65;;;29.10;79.30;;;;;;5053061;28;20395;-75
2021/07/21 07:25:33;;;;;;;19.77;12.30;;;29.00;78.70;;;;;;5054931;28;20044;-75
2021/07/21 07:27:58;;;;;;;16.98;11.75;;;28.90;78.60;;;;;;5052937;28;20101;-74
2021/07/21 07:30:24;;;;;;;14.25;10.38;;;28.80;78.70;;;;;;5043271;28;20065;-77
2021/07/21 07:32:50;;;;;;;25.73;11.70;;;28.80;79.00;;;;;;5033725;28;20029;-76
2021/07/21 07:35:16;;;;;;;16.63;12.00;;;28.90;79.00;;;;;;5044049;28;20154;-74
2021/07/21 07:37:42;;;;;;;17.58;11.45;;;29.10;78.80;;;;;;5033365;28;20025;-76
2021/07/21 07:40:08;;;;;;;15.35;11.70;;;29.20;78.30;;;;;;5043999;28;20024;-74
2021/07/21 07:42:35;;;;;;;17.00;11.32;;;29.40;78.00;;;;;;5042040;28;20028;-75
2021/07/21 07:45:01;;;;;;;13.35;10.82;;;29.60;77.30;;;;;;5043558;28;20391;-82
2021/07/21 07:47:27;;;;;;;17.83;11.25;;;29.60;76.30;;;;;;5033490;28;20088;-74
2021/07/21 07:49:52;;;;;;;17.70;11.75;;;29.60;75.70;;;;;;5044105;28;20060;-76
2021/07/21 07:52:18;;;;;;;18.13;12.05;;;29.60;75.60;;;;;;5031765;28;20029;-74
2021/07/21 07:54:44;;;;;;;15.55;11.00;;;29.50;74.80;;;;;;5042889;28;20024;-75
2021/07/21 07:57:11;;;;;;;18.23;12.45;;;29.50;74.60;;;;;;5039981;28;20031;-76
2021/07/21 07:59:37;;;;;;;13.18;11.55;;;29.40;74.00;;;;;;5043138;28;20043;-76
2021/07/21 08:02:04;;;;;;;15.77;12.15;;;29.40;74.20;;;;;;5039524;28;20471;-76
2021/07/21 08:04:29;;;;;;;17.00;11.55;;;29.50;73.50;;;;;;5033277;28;20393;-76
2021/07/21 08:06:55;;;;;;;17.05;11.20;;;29.50;73.20;;;;;;5041821;28;20071;-79
2021/07/21 08:09:21;;;;;;;15.88;10.80;;;29.60;72.40;;;;;;5042333;28;20033;-75
2021/07/21 08:11:48;;;;;;;15.35;11.57;;;29.80;72.20;;;;;;5032559;28;20041;-75
2021/07/21 08:14:18;;;;;;;15.48;11.23;;;30.00;71.30;;;;;;5039454;28;20025;-74
2021/07/21 08:16:45;;;;;;;14.82;11.85;;;30.30;70.90;;;;;;5041662;28;20024;-75
2021/07/21 08:19:11;;;;;;;14.98;11.50;;;30.60;70.00;;;;;;5032705;28;20028;-73
2021/07/21 08:21:38;;;;;;;15.63;12.38;;;30.80;69.40;;;;;;5042066;28;20116;-75
2021/07/21 08:24:04;;;;;;;14.77;12.10;;;30.90;68.80;;;;;;5044028;28;20056;-75
2021/07/21 08:26:30;;;;;;;12.63;11.30;;;31.00;68.40;;;;;;5041414;28;20025;-75
2021/07/21 08:28:56;;;;;;;14.30;11.90;;;31.10;68.10;;;;;;5041492;28;20029;-76
2021/07/21 08:31:21;;;;;;;18.77;11.85;;;31.20;67.80;;;;;;5032573;28;20033;-74
2021/07/21 08:33:47;;;;;;;13.52;11.25;;;31.40;67.20;;;;;;5040779;28;20101;-76
2021/07/21 08:36:13;;;;;;;14.85;11.68;;;31.60;67.00;;;;;;5043795;28;20482;-75
2021/07/21 08:38:40;;;;;;;15.10;11.57;;;31.70;66.20;;;;;;5044056;28;20071;-76
2021/07/21 08:41:06;;;;;;;14.25;11.85;;;31.90;65.50;;;;;;5041113;28;20033;-79
2021/07/21 08:43:32;;;;;;;21.63;12.35;;;31.90;64.90;;;;;;5041202;28;20018;-76
2021/07/21 08:45:58;;;;;;;16.50;11.13;;;31.80;64.10;;;;;;5041121;28;20047;-76
2021/07/21 08:48:24;;;;;;;13.95;11.35;;;31.80;63.70;;;;;;5041358;28;20021;-75
2021/07/21 08:50:50;;;;;;;20.00;12.10;;;31.80;63.30;;;;;;5032088;28;20353;-75
2021/07/21 08:53:18;;;;;;;14.13;11.20;;;31.80;63.00;;;;;;5031566;28;20399;-76
2021/07/21 08:55:44;;;;;;;14.32;11.43;;;31.80;62.90;;;;;;5030954;28;20018;-74
2021/07/21 08:58:12;;;;;;;15.10;11.65;;;31.80;62.00;;;;;;5042767;28;20017;-75
2021/07/21 09:00:39;;;;;;;16.98;11.05;;;31.80;61.40;;;;;;5031863;28;20025;-75
2021/07/21 09:03:06;;;;;;;14.60;11.07;;;31.80;61.50;;;;;;5042851;28;20025;-75
2021/07/21 09:05:31;;;;;;;15.25;10.85;;;31.90;61.20;;;;;;5040699;28;20095;-75
2021/07/21 09:07:57;;;;;;;14.48;10.77;;;32.00;60.80;;;;;;5050039;28;20060;-75
2021/07/21 09:10:23;;;;;;;19.55;11.50;;;32.30;60.40;;;;;;5052613;28;20053;-75
2021/07/21 09:12:50;;;;;;;13.73;11.35;;;32.90;60.40;;;;;;5054679;28;20036;-76
2021/07/21 09:15:19;;;;;;;16.38;11.23;;;33.50;59.40;;;;;;5056854;28;20033;-76
2021/07/21 09:18:05;;;;;;;14.77;12.77;;;33.90;58.60;;;;;;5057041;28;20025;-75
2021/07/21 09:20:35;;;;;;;16.13;12.55;;;33.80;57.70;;;;;;5057111;28;20052;-75
2021/07/21 09:23:01;;;;;;;15.40;12.13;;;33.60;57.80;;;;;;5057285;28;20386;-75
2021/07/21 09:25:32;;;;;;;14.98;11.70;;;33.60;57.80;;;;;;5056691;28;20025;-75
2021/07/21 09:28:00;;;;;;;16.42;11.35;;;34.10;57.40;;;;;;5056628;28;20025;-75
2021/07/21 09:30:39;;;;;;;17.02;11.88;;;34.70;56.70;;;;;;5056672;28;20025;-75
2021/07/21 09:33:14;;;;;;;14.00;10.73;;;35.20;55.80;;;;;;5056643;28;20031;-76
2021/07/21 09:35:48;;;;;;;15.52;11.20;;;35.40;55.30;;;;;;5056806;28;20444;-75
2021/07/21 09:38:22;;;;;;;14.40;12.05;;;35.00;54.90;;;;;;5056607;28;20032;-74
2021/07/21 09:41:00;;;;;;;16.45;11.75;;;34.40;55.00;;;;;;5056459;28;20493;-75
2021/07/21 09:43:30;;;;;;;15.70;11.23;;;33.80;55.50;;;;;;5055007;28;20036;-74
2021/07/21 09:46:06;;;;;;;13.98;11.35;;;33.20;55.80;;;;;;5056305;28;20021;-75
2021/07/21 09:48:51;;;;;;;14.10;10.88;;;32.70;56.40;;;;;;5056414;28;20036;-75
2021/07/21 09:51:34;;;;;;;17.30;11.57;;;32.20;56.80;;;;;;5056661;28;20044;-76
2021/07/21 09:54:20;;;;;;;16.23;10.95;;;31.90;57.50;;;;;;5054906;28;20059;-76
2021/07/21 09:56:49;;;;;;;17.77;10.88;;;31.60;58.50;;;;;;5050393;28;20029;-76
2021/07/21 09:59:29;;;;;;;18.05;11.55;;;31.50;58.80;;;;;;5018242;28;20030;-74
2021/07/21 10:01:55;;;;;;;17.75;10.88;;;31.40;58.80;;;;;;5036026;28;20042;-75
2021/07/21 10:04:30;;;;;;;15.02;11.30;;;31.40;58.60;;;;;;5036537;28;20383;-75
2021/07/21 10:06:56;;;;;;;16.67;11.65;;;31.30;58.30;;;;;;5036244;28;20029;-75
2021/07/21 10:09:24;;;;;;;17.33;11.13;;;31.10;59.00;;;;;;5034764;28;20044;-75
2021/07/21 10:11:53;;;;;;;13.18;10.30;;;30.90;59.50;;;;;;5034771;28;20037;-74
2021/07/21 10:14:19;;;;;;;14.82;10.90;;;30.80;59.60;;;;;;5035816;28;20032;-74
2021/07/21 10:16:46;;;;;;;14.60;11.23;;;30.50;60.30;;;;;;5036146;28;20116;-75
2021/07/21 10:19:13;;;;;;;15.50;11.13;;;30.30;60.90;;;;;;5036103;28;20029;-75
2021/07/21 10:21:42;;;;;;;14.80;10.52;;;30.10;61.40;;;;;;5036088;28;20029;-75
2021/07/21 10:24:08;;;;;;;16.52;11.35;;;30.00;61.60;;;;;;5034113;28;20021;-76
2021/07/21 10:26:34;;;;;;;13.98;11.15;;;29.90;62.00;;;;;;5043069;28;20029;-75
2021/07/21 10:29:00;;;;;;;17.52;11.48;;;29.90;62.40;;;;;;5054579;28;20068;-75
2021/07/21 10:31:28;;;;;;;15.95;11.30;;;29.80;62.50;;;;;;5055594;28;20153;-74
2021/07/21 10:33:54;;;;;;;14.52;11.25;;;29.80;62.70;;;;;;5056158;28;20036;-75
2021/07/21 10:36:21;;;;;;;15.48;11.45;;;29.80;62.70;;;;;;5055699;28;20025;-75
2021/07/21 10:38:48;;;;;;;14.90;11.52;;;29.80;62.70;;;;;;5055817;28;20036;-75
2021/07/21 10:41:15;;;;;;;13.40;10.82;;;29.70;62.80;;;;;;5055995;28;20025;-77
2021/07/21 10:43:54;;;;;;;13.65;11.05;;;29.70;62.90;;;;;;5056340;28;20108;-74
2021/07/21 10:46:37;;;;;;;19.85;11.27;;;29.50;63.00;;;;;;5055345;28;20056;-74
2021/07/21 11:00:46;;;;;;;14.35;10.93;;;29.20;64.20;;;;;;5055353;28;20493;-75
2021/07/21 11:03:29;;;;;;;14.98;10.57;;;29.10;63.90;;;;;;5055843;28;20041;-75
2021/07/21 11:06:10;;;;;;;13.50;10.30;;;29.00;64.10;;;;;;5055014;28;20021;-75
2021/07/21 11:08:47;;;;;;;15.27;10.95;;;29.00;64.40;;;;;;5055023;28;20029;-75
2021/07/21 11:11:21;;;;;;;13.90;10.60;;;29.00;64.80;;;;;;5055084;28;20052;-75
2021/07/21 11:14:00;;;;;;;15.18;10.32;;;29.00;64.50;;;;;;5054737;28;20029;-75
2021/07/21 11:16:41;;;;;;;12.77;10.30;;;29.00;64.70;;;;;;5054880;28;20057;-74
2021/07/21 11:19:25;;;;;;;13.85;9.52;;;29.00;64.30;;;;;;5054885;28;20451;-75
2021/07/21 11:22:04;;;;;;;13.60;9.38;;;29.10;64.00;;;;;;5055188;28;20032;-74
2021/07/21 11:25:01;;;;;;;12.52;9.35;;;29.20;63.80;;;;;;5055291;28;20371;-75
2021/07/21 11:27:49;;;;;;;14.25;9.25;;;29.20;64.00;;;;;;5055404;28;20057;-74
2021/07/21 11:30:47;;;;;;;13.25;9.32;;;29.20;63.30;;;;;;5054816;28;20033;-74
2021/07/21 11:33:50;;;;;;;11.35;9.05;;;29.20;63.30;;;;;;5014956;28;20052;-76
2021/07/21 11:36:43;;;;;;;12.90;9.20;;;29.20;63.00;;;;;;5014020;28;20026;-75
2021/07/21 11:39:29;;;;;;;17.17;9.07;;;29.20;63.30;;;;;;5014778;28;20034;-75
2021/07/21 11:41:57;;;;;;;11.82;9.45;;;29.30;63.10;;;;;;5011431;28;20255;-79
2021/07/21 11:44:38;;;;;;;13.55;9.23;;;29.30;63.30;;;;;;5031683;28;20080;-75
2021/07/21 11:47:09;;;;;;;15.68;9.93;;;29.30;62.90;;;;;;5035120;28;20033;-75
2021/07/21 11:49:35;;;;;;;12.82;8.90;;;29.30;63.00;;;;;;5034239;28;20118;-76
2021/07/21 11:52:04;;;;;;;14.57;9.88;;;29.30;63.10;;;;;;5034662;28;20096;-75
2021/07/21 11:54:36;;;;;;;13.40;8.85;;;29.40;63.40;;;;;;5034928;28;20021;-75
2021/07/21 11:57:05;;;;;;;13.00;9.43;;;29.40;63.00;;;;;;5034354;28;20033;-74
2021/07/21 11:59:31;;;;;;;12.18;8.43;;;29.60;63.00;;;;;;5035298;28;20033;-78
2021/07/21 12:02:17;;;;;;;13.15;8.77;;;29.60;62.20;;;;;;5034166;28;20045;-78
2021/07/21 12:04:45;;;;;;;16.05;9.38;;;29.70;61.90;;;;;;5034528;28;20041;-76
2021/07/21 12:07:14;;;;;;;10.52;8.43;;;29.70;61.70;;;;;;5034870;28;20036;-74
2021/07/21 12:09:43;;;;;;;13.18;9.30;;;29.60;61.70;;;;;;5034261;28;20030;-74
2021/07/21 12:12:14;;;;;;;11.88;9.18;;;29.50;62.10;;;;;;5033778;28;20037;-74
2021/07/21 12:14:40;;;;;;;15.18;10.27;;;29.50;62.00;;;;;;5044102;28;20546;-75
2021/07/21 12:17:10;;;;;;;12.20;8.88;;;29.40;62.20;;;;;;5035892;28;20414;-74
2021/07/21 12:19:37;;;;;;;12.35;8.90;;;29.40;62.20;;;;;;5033641;28;20025;-74
2021/07/21 12:22:07;;;;;;;13.85;8.82;;;29.30;61.80;;;;;;5033927;28;20122;-76
2021/07/21 12:24:39;;;;;;;11.70;8.55;;;29.20;62.10;;;;;;5034032;28;20025;-75
2021/07/21 12:27:10;;;;;;;10.52;8.05;;;29.10;62.30;;;;;;5035531;28;20053;-75
2021/07/21 12:29:37;;;;;;;11.95;7.30;;;29.00;62.40;;;;;;5034153;28;20039;-76
2021/07/21 12:32:16;;;;;;;8.25;7.15;;;28.90;62.20;;;;;;5044237;28;20033;-76
2021/07/21 12:34:53;;;;;;;9.98;7.88;;;28.80;62.40;;;;;;5053710;28;20049;-75
2021/07/21 12:37:22;;;;;;;9.82;7.85;;;28.70;62.70;;;;;;5053136;28;20025;-77
2021/07/21 12:39:48;;;;;;;10.00;7.07;;;28.70;63.00;;;;;;5054430;28;20048;-75
2021/07/21 12:42:28;;;;;;;11.35;7.70;;;28.60;63.10;;;;;;5052043;28;20033;-74
2021/07/21 12:44:59;;;;;;;10.43;7.65;;;28.50;63.30;;;;;;5053992;28;20036;-75
2021/07/21 12:47:30;;;;;;;9.23;6.93;;;28.40;64.40;;;;;;5054391;28;20475;-75
2021/07/21 12:50:06;;;;;;;9.63;7.55;;;28.30;64.20;;;;;;5051463;28;20025;-76
2021/07/21 12:52:35;;;;;;;8.80;7.07;;;28.20;64.40;;;;;;5044645;28;20045;-75
2021/07/21 12:55:05;;;;;;;9.88;6.75;;;28.10;64.60;;;;;;5040931;28;20036;-75
2021/07/21 12:57:37;;;;;;;9.73;7.18;;;28.00;64.80;;;;;;5048039;28;20033;-75
2021/07/21 13:00:10;;;;;;;11.38;7.35;;;27.90;64.70;;;;;;5053381;28;20025;-76
2021/07/21 13:02:35;;;;;;;12.30;8.10;;;27.80;65.10;;;;;;5054711;28;20045;-76
2021/07/21 13:05:02;;;;;;;8.85;7.07;;;27.70;65.30;;;;;;5047747;28;20056;-75
2021/07/21 13:07:27;;;;;;;10.63;7.53;;;27.70;65.30;;;;;;5034722;28;20052;-75
2021/07/21 13:09:54;;;;;;;13.13;8.25;;;27.60;65.40;;;;;;5035782;28;20029;-75